createdAt,value
2023-05-21T00:01:46.031Z,4.80
2023-05-21T00:04:15.916Z,3.00
2023-05-21T00:06:45.210Z,7.03
2023-05-21T00:09:14.362Z,3.72
2023-05-21T00:11:43.684Z,2.70
2023-05-21T00:14:12.915Z,4.00
2023-05-21T00:16:42.212Z,3.50
2023-05-21T00:19:13.065Z,4.03
2023-05-21T00:21:42.380Z,3.45
2023-05-21T00:24:11.740Z,3.15
2023-05-21T00:26:40.988Z,2.85
2023-05-21T00:29:10.318Z,2.60
2023-05-21T00:31:39.778Z,4.70
2023-05-21T00:34:09.091Z,2.63
2023-05-21T00:36:40.700Z,3.67
2023-05-21T00:39:09.938Z,2.90
2023-05-21T00:41:40.294Z,3.22
2023-05-21T00:44:09.879Z,3.13
2023-05-21T00:46:49.026Z,6.03
2023-05-21T00:49:18.643Z,3.70
2023-05-21T00:51:52.324Z,3.88
2023-05-21T00:54:21.538Z,3.60
2023-05-21T00:56:52.352Z,3.03
2023-05-21T00:59:21.659Z,4.78
2023-05-21T01:01:56.255Z,2.83
2023-05-21T01:04:25.691Z,3.22
2023-05-21T01:06:56.617Z,2.78
2023-05-21T01:09:26.603Z,2.83
2023-05-21T01:11:57.084Z,3.55
2023-05-21T01:14:26.735Z,4.45
2023-05-21T01:16:56.078Z,3.75
2023-05-21T01:19:26.472Z,4.18
2023-05-21T01:22:02.112Z,3.00
2023-05-21T01:24:32.992Z,3.97
2023-05-21T01:27:05.452Z,3.28
2023-05-21T01:29:35.833Z,3.40
2023-05-21T01:32:17.318Z,3.58
2023-05-21T01:34:54.959Z,3.20
2023-05-21T01:37:28.873Z,2.75
2023-05-21T01:40:07.180Z,3.20
2023-05-21T01:42:39.009Z,3.28
2023-05-21T01:45:09.945Z,3.13
2023-05-21T01:47:41.209Z,3.50
2023-05-21T01:50:13.120Z,5.25
2023-05-21T01:52:51.126Z,2.97
2023-05-21T01:55:24.937Z,2.90
2023-05-21T01:57:55.139Z,3.28
2023-05-21T02:00:25.642Z,3.00
2023-05-21T02:02:55.198Z,3.60
2023-05-21T02:05:24.615Z,3.83
2023-05-21T02:07:54.207Z,2.90
2023-05-21T02:10:25.023Z,3.10
2023-05-21T02:12:54.514Z,3.30
2023-05-21T02:15:25.049Z,3.65
2023-05-21T02:17:54.503Z,3.13
2023-05-21T02:20:24.106Z,3.45
2023-05-21T02:22:56.038Z,4.05
2023-05-21T02:25:26.716Z,3.67
2023-05-21T02:27:56.974Z,3.45
2023-05-21T02:30:26.366Z,3.03
2023-05-21T02:32:59.117Z,3.50
2023-05-21T02:35:28.579Z,6.18
2023-05-21T02:37:59.647Z,4.32
2023-05-21T02:40:30.507Z,3.10
2023-05-21T02:42:59.872Z,4.07
2023-05-21T02:45:31.637Z,4.15
2023-05-21T02:48:01.362Z,3.80
2023-05-21T02:50:31.981Z,3.88
2023-05-21T02:53:02.057Z,3.60
2023-05-21T02:55:33.795Z,3.17
2023-05-21T02:58:03.955Z,4.93
2023-05-21T03:00:33.263Z,3.33
2023-05-21T03:03:03.261Z,3.30
2023-05-21T03:05:32.784Z,4.05
2023-05-21T03:08:02.011Z,3.20
2023-05-21T03:10:33.093Z,2.80
2023-05-21T03:13:06.391Z,3.47
2023-05-21T03:15:39.587Z,5.40
2023-05-21T03:18:09.072Z,3.70
2023-05-21T03:20:46.669Z,3.30
2023-05-21T03:23:16.762Z,3.75
2023-05-21T03:25:50.994Z,4.03
2023-05-21T03:28:26.162Z,2.85
2023-05-21T03:30:58.525Z,3.03
2023-05-21T03:33:51.372Z,4.10
2023-05-21T03:36:25.757Z,3.65
2023-05-21T03:38:55.199Z,3.33
2023-05-21T03:41:26.509Z,3.72
2023-05-21T03:44:01.959Z,3.70
2023-05-21T03:46:38.388Z,3.20
2023-05-21T03:49:14.935Z,3.25
2023-05-21T03:51:44.522Z,3.28
2023-05-21T03:54:17.896Z,3.53
2023-05-21T03:56:49.526Z,3.55
2023-05-21T03:59:18.899Z,3.47
2023-05-21T04:01:48.606Z,3.33
2023-05-21T04:04:19.735Z,3.15
2023-05-21T04:06:49.813Z,3.33
2023-05-21T04:09:19.006Z,3.03
2023-05-21T04:11:49.729Z,3.58
2023-05-21T04:14:18.928Z,4.07
2023-05-21T04:16:49.406Z,3.72
2023-05-21T04:19:18.636Z,3.00
2023-05-21T04:21:49.240Z,2.97
2023-05-21T04:24:18.595Z,3.33
2023-05-21T04:26:54.394Z,3.28
2023-05-21T04:29:23.733Z,3.25
2023-05-21T04:31:52.924Z,3.15
2023-05-21T04:34:22.253Z,2.90
2023-05-21T04:36:52.187Z,2.90
2023-05-21T04:39:21.857Z,3.33
2023-05-21T04:41:55.642Z,3.72
2023-05-21T04:44:27.158Z,3.40
2023-05-21T04:46:57.671Z,4.22
2023-05-21T04:49:27.235Z,2.92
2023-05-21T04:51:56.926Z,2.97
2023-05-21T04:54:28.102Z,2.83
2023-05-21T04:56:58.312Z,3.00
2023-05-21T04:59:29.122Z,3.10
2023-05-21T05:01:58.348Z,4.28
2023-05-21T05:04:27.630Z,7.45
2023-05-21T05:06:56.895Z,2.95
2023-05-21T05:09:26.102Z,6.22
2023-05-21T05:11:55.709Z,3.08
2023-05-21T05:14:24.942Z,3.60
2023-05-21T05:17:00.079Z,3.10
2023-05-21T05:19:30.306Z,3.20
2023-05-21T05:21:59.645Z,2.90
2023-05-21T05:24:29.145Z,3.65
2023-05-21T05:26:59.013Z,3.22
2023-05-21T05:29:28.313Z,2.90
2023-05-21T05:31:58.983Z,2.75
2023-05-21T05:34:28.322Z,2.72
2023-05-21T05:36:58.267Z,2.78
2023-05-21T05:39:27.566Z,2.95
2023-05-21T05:41:56.862Z,3.28
2023-05-21T05:44:26.414Z,4.07
2023-05-21T05:46:56.274Z,3.10
2023-05-21T05:49:26.901Z,3.05
2023-05-21T05:51:56.824Z,2.80
2023-05-21T05:54:26.132Z,3.40
2023-05-21T05:56:55.359Z,3.15
2023-05-21T05:59:24.752Z,4.00
2023-05-21T06:01:58.540Z,2.83
2023-05-21T06:04:30.350Z,2.88
2023-05-21T06:07:00.497Z,3.10
2023-05-21T06:09:29.761Z,3.28
2023-05-21T06:11:59.211Z,3.30
2023-05-21T06:14:28.536Z,3.17
2023-05-21T06:16:57.721Z,3.83
2023-05-21T06:19:30.345Z,3.35
2023-05-21T06:21:59.758Z,2.72
2023-05-21T06:24:28.885Z,2.65
2023-05-21T06:26:58.465Z,2.97
2023-05-21T06:29:27.812Z,4.88
2023-05-21T06:31:57.501Z,2.33
2023-05-21T06:34:27.406Z,2.80
2023-05-21T06:36:58.111Z,3.00
2023-05-21T06:39:27.458Z,3.20
2023-05-21T06:41:57.639Z,2.78
2023-05-21T06:44:46.244Z,3.67
2023-05-21T06:47:35.814Z,2.72
2023-05-21T06:50:05.776Z,2.78
2023-05-21T06:52:36.751Z,2.70
2023-05-21T06:55:07.359Z,3.17
2023-05-21T06:58:02.447Z,2.50
2023-05-21T07:00:33.234Z,3.63
2023-05-21T07:03:02.687Z,3.03
2023-05-21T07:05:36.364Z,2.60
2023-05-21T07:08:11.938Z,2.90
2023-05-21T07:10:42.612Z,2.97
2023-05-21T07:13:12.065Z,5.10
2023-05-21T07:15:41.318Z,3.17
2023-05-21T07:18:11.971Z,6.70
2023-05-21T07:20:41.517Z,6.45
2023-05-21T07:23:15.765Z,2.85
2023-05-21T07:25:45.035Z,11.60
2023-05-21T07:28:15.346Z,3.78
2023-05-21T07:30:45.327Z,6.25
2023-05-21T07:33:20.796Z,2.78
2023-05-21T07:35:50.637Z,5.90
2023-05-21T07:38:21.924Z,2.75
2023-05-21T07:40:52.196Z,4.10
2023-05-21T07:43:21.546Z,4.93
2023-05-21T07:45:51.577Z,3.90
2023-05-21T07:48:29.524Z,3.65
2023-05-21T07:51:02.880Z,3.15
2023-05-21T07:53:34.837Z,3.88
2023-05-21T07:56:09.818Z,5.07
2023-05-21T07:58:39.671Z,2.33
2023-05-21T08:01:08.956Z,4.28
2023-05-21T08:03:38.242Z,2.65
2023-05-21T08:06:07.764Z,2.50
2023-05-21T08:08:38.728Z,3.60
2023-05-21T08:11:08.689Z,6.30
2023-05-21T08:13:38.538Z,8.68
2023-05-21T08:16:14.280Z,6.32
2023-05-21T08:18:48.249Z,5.18
2023-05-21T08:21:18.529Z,5.00
2023-05-21T08:23:49.625Z,5.10
2023-05-21T08:26:19.385Z,4.25
2023-05-21T08:28:48.610Z,8.27
2023-05-21T08:31:20.042Z,4.95
2023-05-21T08:33:52.818Z,4.93
2023-05-21T08:36:27.410Z,6.10
2023-05-21T08:39:03.800Z,4.03
2023-05-21T08:41:41.116Z,4.75
2023-05-21T08:44:13.963Z,3.30
2023-05-21T08:46:46.858Z,4.18
2023-05-21T08:49:19.062Z,4.75
2023-05-21T08:51:50.418Z,5.38
2023-05-21T08:54:21.293Z,7.78
2023-05-21T08:56:50.851Z,4.95
2023-05-21T08:59:24.283Z,6.43
2023-05-21T09:01:58.508Z,3.22
2023-05-21T09:04:34.961Z,4.10
2023-05-21T09:07:05.097Z,5.70
2023-05-21T09:09:59.930Z,3.20
2023-05-21T09:12:30.056Z,5.38
2023-05-21T09:15:02.497Z,4.55
2023-05-21T09:17:35.786Z,13.98
2023-05-21T09:20:25.496Z,3.45
2023-05-21T09:23:03.856Z,9.68
2023-05-21T09:25:35.145Z,7.35
2023-05-21T09:28:13.929Z,5.70
2023-05-21T09:30:47.138Z,17.17
2023-05-21T09:33:27.124Z,21.52
2023-05-21T09:35:57.047Z,16.13
2023-05-21T09:38:28.318Z,13.68
2023-05-21T09:40:59.159Z,10.00
2023-05-21T09:43:30.145Z,12.85
2023-05-21T09:46:02.407Z,11.63
2023-05-21T09:48:36.641Z,8.23
2023-05-21T09:51:15.055Z,10.32
2023-05-21T09:53:52.583Z,12.60
2023-05-21T09:56:25.732Z,11.50
2023-05-21T09:58:56.928Z,6.35
2023-05-21T10:01:26.751Z,7.93
2023-05-21T10:03:57.813Z,5.85
2023-05-21T10:06:28.926Z,5.70
2023-05-21T10:09:01.633Z,6.38
2023-05-21T10:11:35.199Z,7.35
2023-05-21T10:14:07.851Z,7.03
2023-05-21T10:16:38.428Z,5.95
2023-05-21T10:19:11.259Z,4.95
2023-05-21T10:21:41.349Z,4.63
2023-05-21T10:24:11.685Z,6.97
2023-05-21T10:26:43.338Z,6.35
2023-05-21T10:29:13.880Z,6.47
2023-05-21T10:31:54.904Z,6.88
2023-05-21T10:34:28.426Z,7.20
2023-05-21T10:36:58.875Z,9.32
2023-05-21T10:39:28.713Z,8.80
2023-05-21T10:42:09.933Z,5.40
2023-05-21T10:44:51.176Z,4.63
2023-05-21T10:48:06.344Z,9.80
2023-05-21T10:50:54.713Z,8.63
2023-05-21T10:53:30.376Z,6.30
2023-05-21T10:56:12.399Z,6.97
2023-05-21T10:59:02.265Z,9.10
2023-05-21T11:01:35.829Z,7.75
2023-05-21T11:04:06.888Z,4.07
2023-05-21T11:06:36.080Z,5.70
2023-05-21T11:09:14.797Z,5.93
2023-05-21T11:11:48.788Z,6.82
2023-05-21T11:14:41.413Z,8.00
2023-05-21T11:17:14.935Z,6.85
2023-05-21T11:19:48.557Z,3.80
2023-05-21T11:22:25.585Z,8.07
2023-05-21T11:24:55.900Z,6.32
2023-05-21T11:27:35.428Z,9.20
2023-05-21T11:30:11.457Z,4.40
2023-05-21T11:32:42.343Z,4.40
2023-05-21T11:35:16.469Z,4.38
2023-05-21T11:37:55.059Z,5.20
2023-05-21T11:40:31.023Z,3.95
2023-05-21T11:43:00.701Z,6.18
2023-05-21T11:45:34.257Z,5.18
2023-05-21T11:48:07.834Z,6.22
2023-05-21T11:50:37.820Z,4.53
2023-05-21T11:53:09.219Z,4.38
2023-05-21T11:55:57.884Z,4.65
2023-05-21T11:58:29.103Z,3.85
2023-05-21T12:00:59.972Z,3.85
2023-05-21T12:03:30.689Z,6.40
2023-05-21T12:06:07.021Z,6.43
2023-05-21T12:08:38.535Z,4.85
2023-05-21T12:11:08.020Z,6.90
2023-05-21T12:13:37.959Z,4.70
2023-05-21T12:16:10.757Z,3.63
2023-05-21T12:18:40.616Z,5.95
2023-05-21T12:21:12.366Z,3.60
2023-05-21T12:23:42.235Z,5.55
2023-05-21T12:26:12.010Z,4.20
2023-05-21T12:28:42.375Z,4.50
2023-05-21T12:31:18.847Z,4.95
2023-05-21T12:33:50.481Z,2.83
2023-05-21T12:36:28.865Z,2.70
2023-05-21T12:38:59.570Z,3.83
2023-05-21T12:41:29.237Z,4.78
2023-05-21T12:44:00.038Z,3.17
2023-05-21T12:46:31.313Z,3.42
2023-05-21T12:49:01.041Z,3.50
2023-05-21T12:51:40.212Z,3.00
2023-05-21T12:54:14.604Z,4.80
2023-05-21T12:56:47.797Z,4.55
2023-05-21T12:59:17.089Z,3.78
2023-05-21T13:01:50.739Z,2.75
2023-05-21T13:04:22.729Z,4.65
2023-05-21T13:06:56.983Z,3.92
2023-05-21T13:13:41.298Z,4.93
2023-05-21T13:16:12.705Z,2.67
2023-05-21T13:18:43.541Z,3.80
2023-05-21T13:21:12.842Z,6.65
2023-05-21T13:23:42.149Z,3.40
2023-05-21T13:26:15.496Z,4.75
2023-05-21T13:28:44.801Z,3.28
2023-05-21T13:31:15.914Z,5.43
2023-05-21T13:33:46.829Z,4.20
2023-05-21T13:36:16.258Z,6.13
2023-05-21T13:38:45.512Z,3.67
2023-05-21T13:41:14.831Z,5.93
2023-05-21T13:43:44.685Z,5.60
2023-05-21T13:46:13.908Z,5.32
2023-05-21T13:48:43.496Z,5.15
2023-05-21T13:51:19.835Z,6.53
2023-05-21T13:53:56.804Z,4.38
2023-05-21T13:56:26.485Z,5.95
2023-05-21T13:58:55.687Z,5.85
2023-05-21T14:01:25.030Z,7.32
2023-05-21T14:03:54.401Z,8.55
2023-05-21T14:06:25.092Z,8.80
2023-05-21T14:08:54.464Z,12.02
2023-05-21T14:11:23.756Z,9.48
2023-05-21T14:13:53.387Z,4.93
2023-05-21T14:16:25.110Z,4.35
2023-05-21T14:18:54.632Z,6.22
2023-05-21T14:21:25.889Z,7.22
2023-05-21T14:23:55.224Z,5.13
2023-05-21T14:26:24.410Z,9.57
2023-05-21T14:28:53.676Z,7.32
2023-05-21T14:31:23.479Z,8.15
2023-05-21T14:33:53.078Z,7.60
2023-05-21T14:36:22.338Z,7.32
2023-05-21T14:38:52.956Z,5.63
2023-05-21T14:41:25.245Z,5.93
2023-05-21T14:43:54.845Z,6.10
2023-05-21T14:46:24.407Z,5.90
2023-05-21T14:48:54.919Z,5.72
2023-05-21T14:51:24.199Z,7.93
2023-05-21T14:53:55.911Z,7.40
2023-05-21T14:56:26.956Z,5.03
2023-05-21T14:58:56.536Z,5.93
2023-05-21T15:01:25.887Z,6.63
2023-05-21T15:03:57.106Z,5.25
2023-05-21T15:06:26.703Z,2.92
2023-05-21T15:08:57.370Z,4.22
2023-05-21T15:11:26.638Z,5.15
2023-05-21T15:13:55.951Z,4.78
2023-05-21T15:16:25.444Z,3.90
2023-05-21T15:18:55.098Z,3.67
2023-05-21T15:21:26.466Z,6.55
2023-05-21T15:23:58.874Z,6.00
2023-05-21T15:26:28.495Z,7.28
2023-05-21T15:28:59.185Z,5.30
2023-05-21T15:31:28.626Z,6.13
2023-05-21T15:34:00.295Z,5.25
2023-05-21T15:36:29.780Z,3.55
2023-05-21T15:39:03.841Z,3.67
2023-05-21T15:41:38.526Z,3.28
2023-05-21T15:44:07.868Z,5.82
2023-05-21T15:46:37.193Z,4.38
2023-05-21T15:49:32.718Z,4.03
2023-05-21T15:52:03.223Z,4.05
2023-05-21T15:54:33.967Z,4.03
2023-05-21T15:57:03.321Z,3.58
2023-05-21T15:59:32.513Z,6.47
2023-05-21T16:02:01.908Z,3.85
2023-05-21T16:04:33.147Z,4.13
2023-05-21T16:07:02.478Z,3.88
2023-05-21T16:09:31.692Z,6.70
2023-05-21T16:12:02.466Z,5.10
2023-05-21T16:14:31.842Z,6.03
2023-05-21T16:17:01.154Z,8.38
2023-05-21T16:19:30.580Z,4.85
2023-05-21T16:21:59.948Z,4.32
2023-05-21T16:24:29.247Z,5.28
2023-05-21T16:26:58.618Z,5.50
2023-05-21T16:29:29.297Z,4.60
2023-05-21T16:31:58.944Z,6.72
2023-05-21T16:34:28.247Z,4.45
2023-05-21T16:36:58.718Z,5.32
2023-05-21T16:39:28.076Z,8.98
2023-05-21T16:41:59.875Z,6.00
2023-05-21T16:44:32.181Z,6.30
2023-05-21T16:47:02.215Z,7.65
2023-05-21T16:49:31.464Z,6.38
2023-05-21T16:52:01.826Z,6.43
2023-05-21T16:54:31.139Z,6.53
2023-05-21T16:57:00.373Z,5.32
2023-05-21T16:59:31.529Z,4.40
2023-05-21T17:02:00.983Z,6.55
2023-05-21T17:04:31.138Z,6.07
2023-05-21T17:07:00.387Z,6.05
2023-05-21T17:09:29.642Z,4.95
2023-05-21T17:11:59.090Z,7.88
2023-05-21T17:17:02.993Z,6.97
2023-05-21T17:19:32.385Z,6.45
2023-05-21T17:22:01.752Z,6.80
2023-05-21T17:24:31.063Z,9.73
2023-05-21T17:27:00.238Z,6.80
2023-05-21T17:29:29.910Z,6.32
2023-05-21T17:31:59.338Z,6.30
2023-05-21T17:34:30.708Z,10.55
2023-05-21T17:37:00.611Z,5.38
2023-05-21T17:39:29.880Z,5.75
2023-05-21T17:42:00.117Z,5.50
2023-05-21T17:44:29.372Z,5.28
2023-05-21T17:46:58.639Z,5.95
2023-05-21T17:49:29.363Z,5.85
2023-05-21T17:52:00.340Z,5.18
2023-05-21T17:54:29.652Z,6.43
2023-05-21T17:56:59.009Z,5.78
2023-05-21T17:59:28.343Z,7.18
2023-05-21T18:02:00.159Z,6.03
2023-05-21T18:04:31.026Z,9.10
2023-05-21T18:07:00.404Z,7.45
2023-05-21T18:09:29.601Z,7.53
2023-05-21T18:11:59.901Z,5.72
2023-05-21T18:14:29.749Z,7.68
2023-05-21T18:16:58.981Z,6.30
2023-05-21T18:19:32.525Z,5.13
2023-05-21T18:22:01.831Z,5.65
2023-05-21T18:24:31.048Z,4.70
2023-05-21T18:27:00.819Z,7.65
2023-05-21T18:29:30.033Z,6.13
2023-05-21T18:31:59.390Z,4.55
2023-05-21T18:34:30.057Z,5.68
2023-05-21T18:37:00.770Z,5.03
2023-05-21T18:39:30.094Z,4.38
2023-05-21T18:42:12.118Z,5.63
2023-05-21T18:44:42.475Z,7.85
2023-05-21T18:47:12.447Z,6.57
2023-05-21T18:49:43.128Z,6.97
2023-05-21T18:52:12.412Z,5.03
2023-05-21T18:54:41.652Z,4.70
2023-05-21T18:57:10.823Z,4.50
2023-05-21T18:59:40.982Z,6.40
2023-05-21T19:02:11.302Z,4.30
2023-05-21T19:04:40.766Z,5.35
2023-05-21T19:07:11.446Z,6.43
2023-05-21T19:09:41.079Z,6.18
2023-05-21T19:12:11.098Z,7.25
2023-05-21T19:14:45.161Z,8.73
2023-05-21T19:17:15.034Z,6.40
2023-05-21T19:19:44.662Z,8.70
2023-05-21T19:22:18.438Z,5.57
2023-05-21T19:25:05.965Z,8.30
2023-05-21T19:28:19.622Z,6.18
2023-05-21T19:31:05.917Z,6.75
2023-05-21T19:34:06.005Z,6.25
2023-05-21T19:36:51.571Z,8.25
2023-05-21T19:39:23.496Z,7.43
2023-05-21T19:41:53.085Z,4.20
2023-05-21T19:44:22.432Z,6.60
2023-05-21T19:46:51.711Z,3.95
2023-05-21T19:49:20.951Z,6.80
2023-05-21T19:51:56.280Z,4.80
2023-05-21T19:54:28.053Z,11.20
2023-05-21T19:56:57.552Z,4.05
2023-05-21T19:59:26.730Z,5.65
2023-05-21T20:01:56.477Z,5.45
2023-05-21T20:04:25.727Z,4.05
2023-05-21T20:06:55.011Z,4.15
2023-05-21T20:09:24.428Z,4.68
2023-05-21T20:11:55.105Z,5.82
2023-05-21T20:14:24.373Z,6.57
2023-05-21T20:16:53.714Z,5.55
2023-05-21T20:19:23.690Z,3.70
2023-05-21T20:21:52.924Z,5.90
2023-05-21T20:24:22.080Z,6.63
2023-05-21T20:26:51.356Z,3.83
2023-05-21T20:29:21.999Z,4.65
2023-05-21T20:31:51.169Z,4.40
2023-05-21T20:34:20.937Z,4.03
2023-05-21T20:36:50.172Z,4.28
2023-05-21T20:39:21.689Z,5.13
2023-05-21T20:41:51.058Z,6.45
2023-05-21T20:44:22.423Z,6.07
2023-05-21T20:46:52.744Z,5.85
2023-05-21T20:49:25.027Z,4.13
2023-05-21T20:51:54.329Z,5.75
2023-05-21T20:54:23.575Z,4.30
2023-05-21T20:56:54.974Z,4.13
2023-05-21T20:59:27.074Z,4.25
2023-05-21T21:01:57.397Z,5.18
2023-05-21T21:04:26.972Z,4.70
2023-05-21T21:06:56.305Z,6.20
2023-05-21T21:09:25.427Z,4.07
2023-05-21T21:11:54.681Z,3.78
2023-05-21T21:14:25.275Z,3.78
2023-05-21T21:16:54.557Z,5.00
2023-05-21T21:19:23.869Z,9.38
2023-05-21T21:21:53.322Z,3.72
2023-05-21T21:24:22.530Z,4.25
2023-05-21T21:26:51.668Z,4.07
2023-05-21T21:29:21.038Z,3.75
2023-05-21T21:31:51.742Z,4.40
2023-05-21T21:34:23.576Z,3.75
2023-05-21T21:36:53.033Z,3.22
2023-05-21T21:39:22.241Z,3.05
2023-05-21T21:41:51.519Z,3.95
2023-05-21T21:44:20.811Z,3.20
2023-05-21T21:46:52.534Z,4.00
2023-05-21T21:49:22.077Z,5.18
2023-05-21T21:51:51.453Z,6.55
2023-05-21T21:54:22.584Z,4.13
2023-05-21T21:56:52.116Z,2.90
2023-05-21T21:59:22.503Z,3.45
2023-05-21T22:01:53.345Z,3.22
2023-05-21T22:04:25.781Z,3.60
2023-05-21T22:06:55.083Z,3.30
2023-05-21T22:09:24.284Z,3.47
2023-05-21T22:11:53.899Z,4.18
2023-05-21T22:14:23.411Z,3.50
2023-05-21T22:16:55.647Z,3.13
2023-05-21T22:19:24.966Z,3.38
2023-05-21T22:21:55.377Z,3.35
2023-05-21T22:24:31.340Z,2.88
2023-05-21T22:27:01.512Z,3.30
2023-05-21T22:29:30.753Z,2.97
2023-05-21T22:32:01.440Z,4.93
2023-05-21T22:34:30.614Z,4.07
2023-05-21T22:36:59.849Z,2.75
2023-05-21T22:39:29.024Z,3.13
2023-05-21T22:42:00.233Z,3.00
2023-05-21T22:44:31.766Z,3.75
2023-05-21T22:47:03.548Z,4.00
2023-05-21T22:49:32.923Z,3.20
2023-05-21T22:52:05.354Z,3.10
2023-05-21T22:54:34.825Z,2.60
2023-05-21T22:57:04.662Z,2.88
2023-05-21T22:59:34.472Z,3.20
2023-05-21T23:02:05.417Z,2.85
2023-05-21T23:04:43.283Z,3.10
2023-05-21T23:07:14.250Z,3.13
2023-05-21T23:09:43.543Z,3.40
2023-05-21T23:12:13.583Z,3.00
2023-05-21T23:14:42.718Z,5.82
2023-05-21T23:17:13.383Z,3.13
2023-05-21T23:19:45.089Z,3.33
2023-05-21T23:22:14.554Z,2.80
2023-05-21T23:24:43.728Z,3.40
2023-05-21T23:27:12.930Z,3.10
2023-05-21T23:29:42.106Z,3.30
2023-05-21T23:32:12.721Z,4.28
2023-05-21T23:34:42.137Z,3.20
2023-05-21T23:37:11.359Z,3.60
2023-05-21T23:39:40.579Z,3.60
2023-05-21T23:42:09.950Z,3.10
2023-05-21T23:44:39.096Z,3.35
2023-05-21T23:47:08.490Z,3.60
2023-05-21T23:49:39.073Z,3.10
2023-05-21T23:52:09.008Z,3.55
2023-05-21T23:54:38.243Z,3.25
2023-05-21T23:57:07.743Z,3.50
2023-05-21T23:59:36.921Z,2.92
